Time;durP1;ratioP1;P1;durP2;ratioP2;P2;SDS_P1;SDS_P2;PMS_P1;PMS_P2;Temp;Humidity;BMP_temperature;BMP_pressure;BME280_temperature;BME280_humidity;BME280_pressure;Samples;Min_cycle;Max_cycle;Signal;HPM_P1;HPM_P2
2022/07/18 00:02:16;;;;;;;1.70;1.30;;;;;;;26.91;41.97;102384.88;5028793;28;20033;-77
2022/07/18 00:04:42;;;;;;;1.35;1.25;;;;;;;26.89;41.96;102389.44;5029051;28;20026;-77
2022/07/18 00:07:10;;;;;;;1.73;1.30;;;;;;;26.88;41.94;102392.09;5028390;28;20033;-76
2022/07/18 00:09:36;;;;;;;1.65;1.50;;;;;;;26.88;41.89;102385.00;5028923;28;20083;-77
2022/07/18 00:12:01;;;;;;;1.50;1.30;;;;;;;26.87;42.02;102377.84;5028929;28;20037;-77
2022/07/18 00:14:26;;;;;;;1.83;1.40;;;;;;;26.87;41.95;102380.53;5029028;28;20037;-77
2022/07/18 00:16:52;;;;;;;1.60;1.30;;;;;;;26.87;41.99;102376.97;5028809;28;20036;-77
2022/07/18 00:19:18;;;;;;;1.70;1.40;;;;;;;26.86;41.87;102381.44;5028911;28;20037;-77
2022/07/18 00:21:44;;;;;;;2.25;1.40;;;;;;;26.86;41.93;102375.22;5026928;28;20447;-77
2022/07/18 00:24:10;;;;;;;1.70;1.48;;;;;;;26.85;41.93;102373.44;5027663;28;20043;-77
2022/07/18 00:26:36;;;;;;;1.80;1.40;;;;;;;26.84;41.97;102377.94;5029032;28;20055;-77
2022/07/18 00:29:01;;;;;;;1.58;1.40;;;;;;;26.83;42.17;102367.28;5031065;28;20491;-77
2022/07/18 00:31:26;;;;;;;1.50;1.40;;;;;;;26.84;41.84;102367.22;5031485;28;20029;-77
2022/07/18 00:33:52;;;;;;;1.75;1.45;;;;;;;26.85;42.03;102368.09;5031391;28;20420;-76
2022/07/18 00:36:17;;;;;;;1.67;1.40;;;;;;;26.83;42.28;102359.25;5032247;28;20030;-77
2022/07/18 00:38:42;;;;;;;1.85;1.50;;;;;;;26.83;42.16;102361.94;5031271;28;20116;-77
2022/07/18 00:41:08;;;;;;;1.65;1.40;;;;;;;26.82;42.20;102357.50;5032312;28;20064;-77
2022/07/18 00:43:33;;;;;;;1.95;1.50;;;;;;;26.83;41.93;102356.59;5031052;28;20040;-76
2022/07/18 00:45:59;;;;;;;1.73;1.40;;;;;;;26.82;42.08;102346.81;5032512;28;20052;-77
2022/07/18 00:48:24;;;;;;;2.22;1.55;;;;;;;26.83;41.75;102345.88;5032650;28;20120;-77
2022/07/18 00:50:50;;;;;;;1.90;1.40;;;;;;;26.79;42.11;102345.09;5031906;28;20045;-77
2022/07/18 00:53:15;;;;;;;2.25;1.60;;;;;;;26.80;42.04;102345.97;5031882;28;20050;-77
2022/07/18 00:55:43;;;;;;;1.38;1.17;;;;;;;26.79;42.18;102350.44;5032419;28;20029;-77
2022/07/18 00:58:10;;;;;;;2.38;1.50;;;;;;;26.81;42.05;102345.03;5032442;28;20029;-77
2022/07/18 01:03:21;;;;;;;1.60;1.40;;;;;;;26.80;41.96;102343.28;5032192;28;20043;-77
2022/07/18 01:05:47;;;;;;;2.60;1.60;;;;;;;26.79;42.09;102336.19;5031780;28;20029;-77
2022/07/18 01:08:13;;;;;;;1.77;1.52;;;;;;;26.79;41.89;102345.09;5032236;28;20025;-77
2022/07/18 01:10:38;;;;;;;2.25;1.50;;;;;;;26.79;42.12;102338.84;5030659;28;20025;-77
2022/07/18 01:13:03;;;;;;;1.80;1.50;;;;;;;26.77;41.87;102346.94;5031825;28;20037;-77
2022/07/18 01:15:29;;;;;;;1.92;1.50;;;;;;;26.76;42.05;102349.66;5032034;28;20120;-77
2022/07/18 01:17:54;;;;;;;2.00;1.70;;;;;;;26.76;42.03;102341.63;5031943;28;20037;-77
2022/07/18 01:20:20;;;;;;;1.80;1.42;;;;;;;26.75;42.08;102345.22;5030418;28;20025;-78
2022/07/18 01:22:45;;;;;;;1.55;1.40;;;;;;;26.76;42.04;102333.63;5029656;28;20032;-77
2022/07/18 01:25:14;;;;;;;1.92;1.50;;;;;;;26.74;42.02;102339.00;5032125;28;20041;-77
2022/07/18 01:27:39;;;;;;;1.73;1.50;;;;;;;26.73;41.95;102345.28;5031745;28;20059;-77
2022/07/18 01:30:06;;;;;;;2.25;1.60;;;;;;;26.71;42.11;102328.41;5030555;28;20037;-77
2022/07/18 01:32:31;;;;;;;1.80;1.60;;;;;;;26.73;41.93;102339.03;5031016;28;20030;-77
2022/07/18 01:34:57;;;;;;;2.30;1.50;;;;;;;26.71;42.04;102327.53;5030318;28;20108;-77
2022/07/18 01:37:22;;;;;;;2.20;1.70;;;;;;;26.69;42.18;102327.56;5031839;28;20022;-77
2022/07/18 01:39:48;;;;;;;2.42;1.60;;;;;;;26.70;42.18;102329.31;5030993;28;20536;-77
2022/07/18 01:42:14;;;;;;;1.70;1.50;;;;;;;26.67;42.23;102324.94;5031030;28;20052;-77
2022/07/18 01:44:40;;;;;;;1.90;1.50;;;;;;;26.69;41.93;102326.69;5031524;28;20042;-77
2022/07/18 01:47:07;;;;;;;2.08;1.80;;;;;;;26.67;42.21;102332.09;5030176;28;20399;-77
2022/07/18 01:49:33;;;;;;;1.90;1.60;;;;;;;26.67;42.21;102324.94;5031170;28;20108;-76
2022/07/18 01:52:00;;;;;;;2.20;1.70;;;;;;;26.68;42.13;102328.50;5030677;28;20097;-77
2022/07/18 01:54:28;;;;;;;1.98;1.60;;;;;;;26.66;42.21;102316.94;5031267;28;20064;-77
2022/07/18 01:56:54;;;;;;;1.83;1.65;;;;;;;26.67;42.26;102316.03;5030207;28;20029;-77
2022/07/18 01:59:20;;;;;;;1.63;1.45;;;;;;;26.67;42.24;102313.34;5030658;28;20681;-77
2022/07/18 02:01:45;;;;;;;2.33;1.60;;;;;;;26.64;42.14;102306.31;5029474;28;20033;-77
2022/07/18 02:04:11;;;;;;;2.08;1.70;;;;;;;26.66;42.22;102322.28;5030917;28;20434;-77
2022/07/18 02:06:37;;;;;;;2.00;1.65;;;;;;;26.64;42.12;102318.81;5031269;28;20065;-77
2022/07/18 02:09:04;;;;;;;2.05;1.60;;;;;;;26.65;42.25;102328.59;5031303;28;20029;-77
2022/07/18 02:11:29;;;;;;;3.00;1.88;;;;;;;26.64;42.23;102321.50;5030425;28;20445;-77
2022/07/18 02:13:55;;;;;;;2.00;1.70;;;;;;;26.61;42.33;102322.44;5030692;28;20026;-77
2022/07/18 02:16:20;;;;;;;1.90;1.60;;;;;;;26.63;42.42;102317.06;5031129;28;20076;-77
2022/07/18 02:18:46;;;;;;;1.90;1.65;;;;;;;26.62;42.29;102316.19;5030535;28;20555;-77
2022/07/18 02:21:13;;;;;;;1.92;1.65;;;;;;;26.61;42.34;102309.06;5030477;28;20086;-77
2022/07/18 02:23:39;;;;;;;2.17;1.80;;;;;;;26.61;42.15;102310.88;5030311;28;20534;-77
2022/07/18 02:26:05;;;;;;;2.08;1.73;;;;;;;26.60;42.33;102303.75;5030679;28;20399;-77
2022/07/18 02:28:31;;;;;;;2.17;1.67;;;;;;;26.62;42.38;102301.94;5030732;28;20646;-77
2022/07/18 02:30:56;;;;;;;1.90;1.60;;;;;;;26.59;42.19;102289.50;5029366;28;20053;-77
2022/07/18 02:33:22;;;;;;;2.72;1.80;;;;;;;26.59;42.22;102296.69;5030074;28;20432;-76
2022/07/18 02:35:47;;;;;;;2.00;1.75;;;;;;;26.59;42.19;102297.53;5030235;28;20029;-77
2022/07/18 02:38:12;;;;;;;2.30;1.80;;;;;;;26.58;42.29;102295.81;5030450;28;20021;-77
2022/07/18 02:40:38;;;;;;;2.38;1.70;;;;;;;26.57;42.35;102304.75;5029216;28;20025;-77
2022/07/18 02:43:04;;;;;;;2.20;1.70;;;;;;;26.59;42.18;102302.03;5028765;28;20037;-77
2022/07/18 02:45:29;;;;;;;2.25;1.88;;;;;;;26.57;42.26;102296.72;5030104;28;20036;-77
2022/07/18 02:47:55;;;;;;;2.72;1.77;;;;;;;26.57;42.28;102296.72;5030299;28;20495;-77
2022/07/18 02:50:21;;;;;;;1.95;1.70;;;;;;;26.57;42.22;102287.81;5029384;28;20122;-77
2022/07/18 02:52:46;;;;;;;2.00;1.70;;;;;;;26.55;42.51;102290.53;5029001;28;20508;-77
2022/07/18 02:55:13;;;;;;;2.00;1.70;;;;;;;26.55;42.25;102297.69;5030036;28;20049;-76
2022/07/18 02:57:39;;;;;;;1.95;1.70;;;;;;;26.54;42.32;102296.81;5030224;28;20037;-77
2022/07/18 03:00:07;;;;;;;2.45;1.88;;;;;;;26.54;42.20;102303.94;5029891;28;20361;-77
2022/07/18 03:02:33;;;;;;;1.90;1.70;;;;;;;26.54;42.30;102296.81;5029924;28;20095;-77
2022/07/18 03:04:58;;;;;;;2.55;1.70;;;;;;;26.53;42.24;102296.88;5029396;28;20029;-76
2022/07/18 03:07:23;;;;;;;2.08;1.63;;;;;;;26.52;42.50;102295.13;5028535;28;20398;-76
2022/07/18 03:09:49;;;;;;;2.17;1.80;;;;;;;26.51;42.35;102296.91;5030166;28;20112;-77
2022/07/18 03:12:14;;;;;;;1.90;1.67;;;;;;;26.51;42.44;102296.91;5029782;28;20032;-77
2022/07/18 03:14:39;;;;;;;3.67;1.80;;;;;;;26.50;42.28;102289.81;5029797;28;20044;-77
2022/07/18 03:17:05;;;;;;;2.10;1.73;;;;;;;26.50;42.51;102286.25;5029633;28;20538;-77
2022/07/18 03:19:30;;;;;;;2.22;1.70;;;;;;;26.50;42.46;102283.56;5008841;28;20238;-77
2022/07/18 03:21:56;;;;;;;2.15;1.80;;;;;;;26.49;42.30;102272.00;5026796;28;20475;-77
2022/07/18 03:24:21;;;;;;;2.10;1.70;;;;;;;26.50;42.27;102280.91;5028245;28;20512;-77
2022/07/18 03:26:47;;;;;;;2.90;1.80;;;;;;;26.51;42.04;102282.66;5029344;28;20486;-77
2022/07/18 03:29:12;;;;;;;2.30;1.80;;;;;;;26.49;42.45;102284.50;5029540;28;20062;-77
2022/07/18 03:31:38;;;;;;;2.38;1.67;;;;;;;26.49;42.24;102279.16;5029046;28;20029;-77
2022/07/18 03:34:03;;;;;;;2.80;1.70;;;;;;;26.49;42.28;102280.03;5029264;28;20025;-77
2022/07/18 03:36:29;;;;;;;2.08;1.70;;;;;;;26.47;42.37;102281.00;5029483;28;20112;-77
2022/07/18 03:38:54;;;;;;;2.08;1.75;;;;;;;26.48;42.46;102272.91;5029005;28;20490;-77
2022/07/18 03:41:20;;;;;;;2.00;1.80;;;;;;;26.48;42.36;102267.56;5028970;28;20353;-77
2022/07/18 03:43:45;;;;;;;2.47;1.83;;;;;;;26.46;42.36;102261.41;5029318;28;20029;-76
2022/07/18 03:46:11;;;;;;;2.53;1.92;;;;;;;26.48;42.20;102256.00;5029424;28;20127;-77
2022/07/18 03:48:36;;;;;;;2.55;1.90;;;;;;;26.46;42.22;102256.06;5028691;28;20029;-77
2022/07/18 03:51:02;;;;;;;2.00;1.70;;;;;;;26.44;42.50;102263.25;5027784;28;20128;-77
2022/07/18 03:53:28;;;;;;;2.25;1.90;;;;;;;26.45;42.34;102261.44;5027899;28;20052;-77
2022/07/18 03:55:53;;;;;;;2.55;1.77;;;;;;;26.44;42.41;102251.66;5029290;28;20037;-77
2022/07/18 03:58:19;;;;;;;2.65;1.80;;;;;;;26.43;42.54;102247.25;5029030;28;20049;-77
2022/07/18 04:00:44;;;;;;;1.90;1.70;;;;;;;26.41;42.21;102251.78;5028779;28;20120;-77
2022/07/18 04:03:10;;;;;;;2.10;1.75;;;;;;;26.43;42.30;102244.56;5032091;28;20026;-77
2022/07/18 04:05:35;;;;;;;2.00;1.80;;;;;;;26.42;42.39;102257.06;5032852;28;21017;-77
2022/07/18 04:08:00;;;;;;;2.50;1.98;;;;;;;26.44;42.33;102255.22;5033351;28;20056;-77
2022/07/18 04:10:26;;;;;;;2.20;1.90;;;;;;;26.40;42.38;102250.91;5031605;28;20055;-77
2022/07/18 04:12:53;;;;;;;2.25;1.80;;;;;;;26.41;42.24;102249.94;5031878;28;20026;-77
2022/07/18 04:15:20;;;;;;;2.15;1.70;;;;;;;26.41;42.20;102257.13;5032865;28;20032;-77
2022/07/18 04:17:46;;;;;;;2.33;1.98;;;;;;;26.40;42.39;102250.03;5033138;28;20033;-77
2022/07/18 04:20:12;;;;;;;2.30;1.90;;;;;;;26.40;42.43;102248.22;5030918;28;20506;-77
2022/07/18 04:22:50;;;;;;;2.45;2.00;;;;;;;26.41;42.33;102235.75;5033114;28;20029;-77
2022/07/18 04:25:17;;;;;;;2.00;1.60;;;;;;;26.41;42.33;102230.38;5033001;28;20036;-77
2022/07/18 04:27:43;;;;;;;2.70;2.10;;;;;;;26.39;42.19;102222.41;5032526;28;20100;-77
2022/07/18 04:30:09;;;;;;;2.33;1.80;;;;;;;26.40;42.39;102225.97;5032700;28;20116;-77
2022/07/18 04:32:34;;;;;;;2.50;1.88;;;;;;;26.40;42.45;102231.31;5031427;28;20392;-76
2022/07/18 04:34:59;;;;;;;2.30;1.92;;;;;;;26.40;42.30;102216.13;5032278;28;20033;-77
2022/07/18 04:37:25;;;;;;;2.08;1.83;;;;;;;26.42;42.27;102219.63;5032400;28;20025;-77
2022/07/18 04:39:50;;;;;;;2.40;1.95;;;;;;;26.43;42.25;102220.50;5031373;28;20064;-77
2022/07/18 04:42:15;;;;;;;2.97;2.00;;;;;;;26.39;42.28;102218.84;5032364;28;20610;-77
2022/07/18 04:44:41;;;;;;;2.67;1.95;;;;;;;26.40;42.12;102223.28;5032684;28;20033;-77
2022/07/18 04:47:06;;;;;;;2.40;1.90;;;;;;;26.38;42.16;102223.31;5030504;28;20120;-77
2022/07/18 04:49:31;;;;;;;3.53;2.00;;;;;;;26.38;42.35;102228.66;5032138;28;20041;-78
2022/07/18 04:51:57;;;;;;;4.35;1.83;;;;;;;26.37;42.29;102229.59;5031097;28;20108;-78
2022/07/18 04:54:22;;;;;;;2.53;1.95;;;;;;;26.36;42.33;102225.16;5002993;28;20095;-78
2022/07/18 04:56:47;;;;;;;2.80;2.13;;;;;;;26.37;42.36;102239.41;5030892;28;20033;-78
2022/07/18 04:59:13;;;;;;;5.70;1.90;;;;;;;26.38;42.39;102241.16;5031752;28;20025;-78
2022/07/18 05:01:38;;;;;;;2.50;1.98;;;;;;;26.38;42.36;102243.84;5032054;28;20029;-78
2022/07/18 05:04:03;;;;;;;2.45;2.00;;;;;;;26.38;42.21;102233.13;5031814;28;20102;-78
2022/07/18 05:06:29;;;;;;;2.63;2.00;;;;;;;26.38;42.42;102227.78;5031978;28;20399;-78
2022/07/18 05:08:54;;;;;;;2.40;2.03;;;;;;;26.38;42.23;102236.69;5030744;28;20407;-78
2022/07/18 05:11:20;;;;;;;2.70;2.08;;;;;;;26.39;42.21;102234.91;5031748;28;20379;-78
2022/07/18 05:13:45;;;;;;;2.65;2.10;;;;;;;26.38;42.23;102228.66;5031086;28;20032;-78
2022/07/18 05:16:10;;;;;;;2.47;2.10;;;;;;;26.37;42.20;102231.38;5031964;28;20041;-77
2022/07/18 05:18:36;;;;;;;2.55;2.05;;;;;;;26.38;42.21;102223.31;5031467;28;20033;-78
2022/07/18 05:21:01;;;;;;;2.90;2.20;;;;;;;26.39;42.16;102229.56;5030456;28;20041;-77
2022/07/18 05:23:26;;;;;;;2.78;2.40;;;;;;;26.38;42.08;102226.00;5029963;28;20091;-78
2022/07/18 05:25:52;;;;;;;2.30;2.00;;;;;;;26.38;42.08;102223.31;5031990;28;20495;-78
2022/07/18 05:28:17;;;;;;;2.38;1.90;;;;;;;26.37;42.22;102218.91;5031861;28;20033;-78
2022/07/18 05:30:42;;;;;;;2.67;2.17;;;;;;;26.37;42.26;102208.19;5029926;28;20126;-78
2022/07/18 05:33:08;;;;;;;2.65;2.20;;;;;;;26.38;42.04;102215.31;5031185;28;20037;-79
2022/07/18 05:35:33;;;;;;;2.30;2.00;;;;;;;26.39;42.27;102208.16;5013692;28;20057;-79
2022/07/18 05:37:59;;;;;;;2.40;2.03;;;;;;;26.39;41.97;102200.13;5029955;28;20388;-78
2022/07/18 05:40:24;;;;;;;2.88;2.10;;;;;;;26.35;41.96;102202.00;5031113;28;20116;-78
2022/07/18 05:42:49;;;;;;;2.60;2.10;;;;;;;26.37;42.20;102202.84;5031450;28;20048;-79
2022/07/18 05:45:15;;;;;;;3.53;2.20;;;;;;;26.39;42.15;102195.66;5030350;28;20159;-78
2022/07/18 05:47:40;;;;;;;2.50;2.10;;;;;;;26.40;41.86;102194.75;5029758;28;20029;-78
2022/07/18 05:50:07;;;;;;;2.40;2.10;;;;;;;26.38;42.17;102180.53;5030935;28;20037;-78
2022/07/18 05:52:32;;;;;;;2.65;2.10;;;;;;;26.40;42.20;102188.53;5010163;28;20022;-79
2022/07/18 05:54:58;;;;;;;2.30;2.00;;;;;;;26.37;42.05;102178.78;5030777;28;20029;-78
2022/07/18 05:57:23;;;;;;;2.30;2.10;;;;;;;26.37;42.04;102186.81;5030551;28;20034;-77
2022/07/18 05:59:49;;;;;;;2.90;2.20;;;;;;;26.37;41.92;102175.22;5031308;28;20467;-78
2022/07/18 06:02:14;;;;;;;2.60;2.10;;;;;;;26.36;42.08;102181.50;5029721;28;20033;-78
2022/07/18 06:04:40;;;;;;;2.78;2.20;;;;;;;26.36;42.11;102181.50;5030714;28;20031;-78
2022/07/18 06:07:05;;;;;;;2.50;2.08;;;;;;;26.37;41.97;102194.81;5030979;28;20044;-78
2022/07/18 06:09:31;;;;;;;2.88;2.17;;;;;;;26.38;41.89;102183.22;5029089;28;20453;-78
2022/07/18 06:11:59;;;;;;;2.92;2.25;;;;;;;26.38;42.09;102175.19;5029685;28;20528;-79
2022/07/18 06:14:27;;;;;;;2.97;2.20;;;;;;;26.36;42.10;102170.81;5030907;28;20105;-78
2022/07/18 06:16:52;;;;;;;3.00;2.25;;;;;;;26.38;42.15;102171.63;5031000;28;20065;-79
2022/07/18 06:19:18;;;;;;;2.45;2.10;;;;;;;26.38;41.94;102168.97;5025346;28;20102;-79
2022/07/18 06:21:43;;;;;;;2.50;2.03;;;;;;;26.40;42.01;102175.16;5030294;28;20099;-78
2022/07/18 06:24:09;;;;;;;2.47;1.92;;;;;;;26.40;41.94;102173.34;5030550;28;20479;-79
2022/07/18 06:26:34;;;;;;;3.00;2.20;;;;;;;26.41;42.02;102171.56;5029343;28;20036;-79
2022/07/18 06:29:00;;;;;;;2.65;2.17;;;;;;;26.41;42.03;102176.91;5030095;28;20052;-78
2022/07/18 06:31:25;;;;;;;2.30;2.10;;;;;;;26.43;41.67;102177.72;5030530;28;20030;-79
2022/07/18 06:33:50;;;;;;;2.67;2.20;;;;;;;26.44;41.88;102177.66;5030452;28;20030;-79
2022/07/18 06:36:17;;;;;;;2.55;2.08;;;;;;;26.45;41.72;102182.09;5030453;28;20036;-78
2022/07/18 06:38:42;;;;;;;2.45;2.00;;;;;;;26.44;41.92;102179.47;5029303;28;20033;-79
2022/07/18 06:41:08;;;;;;;2.65;2.10;;;;;;;26.45;41.87;102187.44;5029785;28;20041;-78
2022/07/18 06:43:33;;;;;;;2.55;2.10;;;;;;;26.46;41.72;102183.84;5012431;28;20040;-79
2022/07/18 06:45:59;;;;;;;2.40;2.10;;;;;;;26.48;41.77;102190.00;5030407;28;20363;-79
2022/07/18 06:48:24;;;;;;;2.63;2.00;;;;;;;26.49;42.05;102196.25;5029749;28;20060;-78
2022/07/18 06:50:49;;;;;;;2.60;2.20;;;;;;;26.51;41.65;102191.72;5028766;28;20043;-79
2022/07/18 06:53:15;;;;;;;2.67;2.10;;;;;;;26.50;41.77;102190.84;5028122;28;20053;-79
2022/07/18 06:55:41;;;;;;;3.08;2.05;;;;;;;26.52;41.57;102189.00;5030023;28;20075;-80
2022/07/18 06:58:06;;;;;;;2.55;2.17;;;;;;;26.53;41.71;102198.75;5028936;28;20028;-79
2022/07/18 07:00:32;;;;;;;2.50;2.00;;;;;;;26.52;41.57;102197.03;5031007;28;20033;-79
2022/07/18 07:02:57;;;;;;;3.13;2.15;;;;;;;26.53;41.62;102197.91;5029359;28;20033;-79
2022/07/18 07:05:23;;;;;;;3.47;2.10;;;;;;;26.52;41.51;102197.03;5030346;28;20034;-79
2022/07/18 07:07:48;;;;;;;3.17;2.20;;;;;;;26.53;41.57;102200.59;5029253;28;20029;-80
2022/07/18 07:10:15;;;;;;;2.28;1.90;;;;;;;26.54;41.58;102194.28;5030702;28;20550;-79
2022/07/18 07:12:46;;;;;;;2.30;2.00;;;;;;;26.50;41.73;102196.19;5030384;28;20490;-79
2022/07/18 07:15:13;;;;;;;2.85;2.15;;;;;;;26.55;41.74;102204.06;5030017;28;20037;-80
2022/07/18 07:17:38;;;;;;;2.60;1.90;;;;;;;26.56;41.47;102200.47;5030054;28;20118;-80
2022/07/18 07:20:06;;;;;;;2.58;2.00;;;;;;;26.56;41.69;102200.47;5012259;28;20452;-79
2022/07/18 07:22:40;;;;;;;2.20;1.95;;;;;;;26.56;41.56;102201.34;5029866;28;20033;-80
2022/07/18 07:25:05;;;;;;;2.30;1.83;;;;;;;26.60;41.73;102204.78;5029349;28;20030;-79
2022/07/18 07:27:30;;;;;;;2.40;2.00;;;;;;;26.61;41.80;102209.22;5028302;28;20121;-79
2022/07/18 07:29:56;;;;;;;2.55;2.00;;;;;;;26.64;41.70;102206.47;5029749;28;20060;-79
2022/07/18 07:32:21;;;;;;;2.03;1.83;;;;;;;26.66;41.65;102207.25;5028717;28;20084;-79
2022/07/18 07:34:46;;;;;;;2.42;1.98;;;;;;;26.70;41.63;102208.06;5029569;28;20112;-79
2022/07/18 07:37:12;;;;;;;2.20;2.00;;;;;;;26.73;41.48;102206.16;5028883;28;20085;-80
2022/07/18 07:39:37;;;;;;;2.70;1.90;;;;;;;26.74;41.52;102194.53;5011478;28;20021;-79
2022/07/18 07:42:03;;;;;;;2.53;1.98;;;;;;;26.74;41.79;102193.66;5029260;28;20403;-80
2022/07/18 07:44:28;;;;;;;2.72;2.15;;;;;;;26.79;41.71;102197.91;5028466;28;20037;-80
2022/07/18 07:46:53;;;;;;;2.67;2.28;;;;;;;26.78;41.64;102195.28;4994879;28;20059;-80
2022/07/18 07:49:19;;;;;;;2.50;1.90;;;;;;;26.80;41.75;102191.63;5029572;28;20025;-79
2022/07/18 07:51:44;;;;;;;2.45;1.88;;;;;;;26.79;41.77;102192.56;5029054;28;20025;-79
2022/07/18 07:54:09;;;;;;;2.30;1.88;;;;;;;26.79;41.63;102189.88;5028738;28;20073;-79
2022/07/18 07:56:35;;;;;;;2.17;1.95;;;;;;;26.81;41.67;102195.19;5029350;28;20068;-79
2022/07/18 07:59:01;;;;;;;2.00;1.80;;;;;;;26.84;41.71;102187.94;5028261;28;20034;-79
2022/07/18 08:01:27;;;;;;;2.35;1.90;;;;;;;26.87;41.77;102186.97;5028193;28;20506;-79
2022/07/18 08:03:52;;;;;;;2.60;2.00;;;;;;;26.87;41.55;102189.63;5027481;28;20034;-80
2022/07/18 08:06:17;;;;;;;1.92;1.70;;;;;;;26.88;41.86;102180.69;5029320;28;20041;-79
2022/07/18 08:08:43;;;;;;;2.30;1.77;;;;;;;26.88;41.79;102186.03;5028798;28;20025;-79
2022/07/18 08:11:08;;;;;;;2.60;2.13;;;;;;;26.87;41.91;102182.50;5029172;28;20029;-79
2022/07/18 08:13:33;;;;;;;2.22;1.80;;;;;;;26.89;41.81;102185.16;5029104;28;20755;-79
2022/07/18 08:15:59;;;;;;;2.20;1.90;;;;;;;26.88;41.75;102173.56;5029136;28;20411;-79
2022/07/18 08:18:24;;;;;;;2.50;1.90;;;;;;;26.92;41.64;102171.66;5027254;28;20116;-79
2022/07/18 08:20:50;;;;;;;2.13;1.90;;;;;;;26.92;41.64;102174.34;5027881;28;20096;-80
2022/07/18 08:23:17;;;;;;;2.40;1.98;;;;;;;26.95;41.76;102166.22;5027771;28;20040;-80
2022/07/18 08:25:44;;;;;;;2.42;1.85;;;;;;;26.95;41.64;102179.59;5029099;28;20554;-79
2022/07/18 08:28:13;;;;;;;2.13;1.70;;;;;;;26.97;41.65;102178.59;5028453;28;20029;-79
2022/07/18 08:30:39;;;;;;;2.25;1.90;;;;;;;26.97;41.80;102175.91;5027788;28;20033;-79
2022/07/18 08:33:06;;;;;;;2.28;1.67;;;;;;;26.97;41.75;102170.56;5028817;28;20033;-79
2022/07/18 08:35:33;;;;;;;2.45;1.85;;;;;;;27.00;41.74;102164.25;5027191;28;20060;-80
2022/07/18 08:37:59;;;;;;;1.90;1.70;;;;;;;27.04;41.75;102157.84;5029103;28;20041;-79
2022/07/18 08:40:24;;;;;;;1.95;1.70;;;;;;;27.05;41.51;102154.25;5028670;28;20025;-80
2022/07/18 08:42:52;;;;;;;1.98;1.73;;;;;;;27.09;41.71;102171.06;5028609;28;20087;-80
2022/07/18 08:45:24;;;;;;;2.05;1.73;;;;;;;27.12;41.67;102169.19;5028702;28;20037;-80
2022/07/18 08:47:50;;;;;;;2.08;1.80;;;;;;;27.17;41.62;102167.19;5028280;28;20132;-80
2022/07/18 08:50:16;;;;;;;2.60;1.80;;;;;;;27.19;41.52;102165.34;5029495;28;20029;-79
2022/07/18 08:52:41;;;;;;;2.10;1.70;;;;;;;27.21;41.56;102160.81;5032278;28;20530;-80
2022/07/18 08:55:08;;;;;;;2.20;1.63;;;;;;;27.23;41.50;102163.44;5030990;28;20039;-79
2022/07/18 08:57:34;;;;;;;2.17;1.90;;;;;;;27.25;41.39;102161.59;5032018;28;20029;-80
2022/07/18 08:59:59;;;;;;;2.10;1.60;;;;;;;27.26;41.57;102157.97;5032099;28;20078;-80
2022/07/18 09:02:27;;;;;;;2.08;1.80;;;;;;;27.27;41.47;102152.53;5031507;28;20034;-79
2022/07/18 09:04:53;;;;;;;2.08;1.77;;;;;;;27.26;41.69;102156.19;5030606;28;20076;-79
2022/07/18 09:07:37;;;;;;;2.30;1.75;;;;;;;27.29;41.58;102147.16;5032052;28;20119;-80
2022/07/18 09:10:05;;;;;;;1.73;1.55;;;;;;;27.36;41.39;102144.19;5030749;28;20033;-79
2022/07/18 09:12:33;;;;;;;2.00;1.55;;;;;;;27.40;41.32;102142.28;5030386;28;20044;-80
2022/07/18 09:15:10;;;;;;;2.25;1.70;;;;;;;27.33;41.38;102146.97;5031090;28;20362;-80
2022/07/18 09:17:36;;;;;;;1.83;1.60;;;;;;;27.34;41.42;102148.72;5031678;28;20112;-80
2022/07/18 09:20:15;;;;;;;2.25;1.60;;;;;;;27.37;41.62;102147.75;5031831;28;20116;-80
2022/07/18 09:22:49;;;;;;;1.90;1.70;;;;;;;27.38;41.52;102152.19;5031843;28;20034;-80
2022/07/18 09:25:21;;;;;;;2.03;1.80;;;;;;;27.40;41.61;102150.31;5031820;28;20079;-79
2022/07/18 09:27:51;;;;;;;2.55;1.65;;;;;;;27.41;41.33;102152.06;5031705;28;20472;-80
2022/07/18 09:30:35;;;;;;;3.10;1.88;;;;;;;27.43;41.58;102143.06;5030124;28;20026;-80
2022/07/18 09:33:03;;;;;;;2.45;1.85;;;;;;;27.45;41.44;102145.66;5031122;28;20030;-79
2022/07/18 09:35:33;;;;;;;2.17;1.75;;;;;;;27.45;41.58;102145.66;5031347;28;20053;-79
2022/07/18 09:38:07;;;;;;;1.90;1.70;;;;;;;27.47;41.49;102149.16;5031541;28;20487;-80
2022/07/18 09:40:38;;;;;;;1.88;1.63;;;;;;;27.48;41.47;102145.56;5031132;28;20091;-80
2022/07/18 09:43:06;;;;;;;1.88;1.63;;;;;;;27.50;41.23;102145.50;5031489;28;20037;-80
2022/07/18 09:45:37;;;;;;;2.08;1.70;;;;;;;27.50;41.64;102145.50;5031487;28;20041;-80
2022/07/18 09:48:08;;;;;;;2.55;1.80;;;;;;;27.52;41.34;102146.34;5031294;28;20032;-80
2022/07/18 09:50:43;;;;;;;2.10;1.65;;;;;;;27.54;41.26;102141.81;5030900;28;20069;-79
2022/07/18 09:53:19;;;;;;;2.13;1.70;;;;;;;27.55;41.43;102135.50;5029886;28;20041;-80
2022/07/18 09:55:53;;;;;;;2.30;1.60;;;;;;;27.57;41.51;102134.50;5030963;28;20029;-79
2022/07/18 09:58:22;;;;;;;2.00;1.65;;;;;;;27.57;41.17;102133.66;5031102;28;20112;-80
2022/07/18 10:00:48;;;;;;;2.65;1.80;;;;;;;27.58;41.18;102136.25;5010747;28;20021;-80
2022/07/18 10:03:14;;;;;;;2.65;1.60;;;;;;;27.59;41.37;102135.34;5030288;28;20419;-79
2022/07/18 10:05:41;;;;;;;1.90;1.70;;;;;;;27.59;41.35;102135.34;5030638;28;20602;-80
2022/07/18 10:08:19;;;;;;;2.10;1.70;;;;;;;27.61;41.61;102137.97;5031140;28;20380;-80
2022/07/18 10:10:46;;;;;;;2.13;1.73;;;;;;;27.62;41.19;102137.03;5031040;28;20364;-79
2022/07/18 10:13:13;;;;;;;2.45;1.73;;;;;;;27.63;41.12;102139.63;5030967;28;20502;-80
2022/07/18 10:15:41;;;;;;;1.98;1.60;;;;;;;27.64;41.58;102145.88;5030628;28;20060;-80
2022/07/18 10:18:10;;;;;;;1.90;1.50;;;;;;;27.65;41.35;102134.22;5025509;28;20029;-79
2022/07/18 10:20:46;;;;;;;1.98;1.60;;;;;;;27.65;41.20;102132.44;5030622;28;20090;-80
2022/07/18 10:23:26;;;;;;;1.70;1.52;;;;;;;27.65;41.38;102140.47;5030688;28;20030;-80
2022/07/18 10:26:12;;;;;;;2.08;1.60;;;;;;;27.69;41.38;102131.38;5028497;28;20033;-80
2022/07/18 10:28:59;;;;;;;2.00;1.60;;;;;;;27.70;41.24;102134.91;5030079;28;20075;-80
2022/07/18 10:31:36;;;;;;;1.90;1.58;;;;;;;27.70;41.32;102129.56;5028777;28;20033;-79
2022/07/18 10:34:08;;;;;;;2.00;1.60;;;;;;;27.73;41.10;102134.81;5030432;28;20379;-78
2022/07/18 10:36:34;;;;;;;2.03;1.52;;;;;;;27.75;41.19;102132.97;5030420;28;20129;-80
2022/07/18 10:39:23;;;;;;;1.65;1.50;;;;;;;27.73;41.22;102140.19;5029878;28;20397;-79
2022/07/18 10:41:52;;;;;;;1.83;1.48;;;;;;;27.76;41.27;102134.69;5030237;28;20076;-80
2022/07/18 10:44:20;;;;;;;2.35;1.77;;;;;;;27.76;41.20;102137.38;5028913;28;20095;-79
2022/07/18 10:47:03;;;;;;;2.10;1.70;;;;;;;27.79;41.15;102131.91;5029613;28;20033;-79
2022/07/18 10:49:47;;;;;;;1.73;1.50;;;;;;;27.77;41.17;102131.97;5030187;28;20074;-79
2022/07/18 10:52:33;;;;;;;2.05;1.60;;;;;;;27.79;41.35;102135.47;5030097;28;20467;-78
2022/07/18 10:55:04;;;;;;;1.98;1.50;;;;;;;27.82;41.19;102129.09;5029886;28;20047;-79
2022/07/18 10:57:32;;;;;;;1.85;1.60;;;;;;;27.83;41.23;102130.84;5029940;28;20813;-78
2022/07/18 11:00:08;;;;;;;1.70;1.60;;;;;;;27.82;41.58;102127.28;5029668;28;20061;-80
2022/07/18 11:03:02;;;;;;;1.60;1.50;;;;;;;27.82;41.37;102121.94;5029547;28;20109;-80
2022/07/18 11:05:27;;;;;;;2.28;1.80;;;;;;;27.84;41.41;102122.75;5029835;28;20030;-78
2022/07/18 11:07:58;;;;;;;1.80;1.60;;;;;;;27.85;41.17;102118.28;5029751;28;20055;-79
2022/07/18 11:10:46;;;;;;;1.80;1.50;;;;;;;27.85;41.37;102121.81;5029665;28;20083;-79
2022/07/18 11:13:31;;;;;;;1.70;1.40;;;;;;;27.88;41.21;102123.50;5027685;28;20025;-79
2022/07/18 11:16:05;;;;;;;2.78;1.55;;;;;;;27.89;41.39;102119.88;5029036;28;20146;-78
2022/07/18 11:18:53;;;;;;;1.95;1.50;;;;;;;27.90;41.27;102115.41;5029777;28;20026;-77
2022/07/18 11:21:18;;;;;;;1.77;1.48;;;;;;;27.90;41.18;102110.91;5028979;28;20036;-78
2022/07/18 11:23:47;;;;;;;1.98;1.60;;;;;;;27.90;41.18;102108.25;5029509;28;20022;-78
2022/07/18 11:26:20;;;;;;;1.75;1.50;;;;;;;27.92;41.44;102108.19;5029734;28;20037;-78
2022/07/18 11:28:46;;;;;;;;;;;;;;;27.93;41.29;102096.53;5030025;28;20068;-77